sensor_id;sensor_type;location;lat;lon;timestamp;temperature;humidity
8662;DHT22;29684;47.722;9.388;2023-03-11T00:01:29;4.80;99.90
8662;DHT22;29684;47.722;9.388;2023-03-11T00:04:13;4.80;99.90
8662;DHT22;29684;47.722;9.388;2023-03-11T00:06:57;4.80;99.90
8662;DHT22;29684;47.722;9.388;2023-03-11T00:09:42;4.80;99.90
8662;DHT22;29684;47.722;9.388;2023-03-11T00:12:26;4.80;99.90
8662;DHT22;29684;47.722;9.388;2023-03-11T00:15:11;4.70;99.90
8662;DHT22;29684;47.722;9.388;2023-03-11T00:17:56;4.70;99.90
8662;DHT22;29684;47.722;9.388;2023-03-11T00:20:43;4.70;99.90
8662;DHT22;29684;47.722;9.388;2023-03-11T00:23:28;4.70;99.90
8662;DHT22;29684;47.722;9.388;2023-03-11T00:26:12;4.70;99.90
8662;DHT22;29684;47.722;9.388;2023-03-11T00:28:57;4.70;99.90
8662;DHT22;29684;47.722;9.388;2023-03-11T00:31:41;4.60;99.90
8662;DHT22;29684;47.722;9.388;2023-03-11T00:34:24;4.60;99.90
8662;DHT22;29684;47.722;9.388;2023-03-11T00:37:09;4.50;99.90
8662;DHT22;29684;47.722;9.388;2023-03-11T00:39:53;4.60;99.90
8662;DHT22;29684;47.722;9.388;2023-03-11T00:42:37;4.60;99.90
8662;DHT22;29684;47.722;9.388;2023-03-11T00:45:22;4.60;99.90
8662;DHT22;29684;47.722;9.388;2023-03-11T00:48:07;4.50;99.90
8662;DHT22;29684;47.722;9.388;2023-03-11T00:50:51;4.50;99.90
8662;DHT22;29684;47.722;9.388;2023-03-11T00:53:35;4.50;99.90
8662;DHT22;29684;47.722;9.388;2023-03-11T00:56:19;4.50;99.90
8662;DHT22;29684;47.722;9.388;2023-03-11T00:59:04;4.50;99.90
8662;DHT22;29684;47.722;9.388;2023-03-11T01:01:48;4.40;99.90
8662;DHT22;29684;47.722;9.388;2023-03-11T01:04:32;4.40;99.90
8662;DHT22;29684;47.722;9.388;2023-03-11T01:07:16;4.40;99.90
8662;DHT22;29684;47.722;9.388;2023-03-11T01:10:00;4.40;99.90
8662;DHT22;29684;47.722;9.388;2023-03-11T01:12:45;4.30;99.90
8662;DHT22;29684;47.722;9.388;2023-03-11T01:15:32;4.30;99.90
8662;DHT22;29684;47.722;9.388;2023-03-11T01:18:17;4.30;99.90
8662;DHT22;29684;47.722;9.388;2023-03-11T01:21:03;4.30;99.90
8662;DHT22;29684;47.722;9.388;2023-03-11T01:23:48;4.30;99.90
8662;DHT22;29684;47.722;9.388;2023-03-11T01:26:32;4.30;99.90
8662;DHT22;29684;47.722;9.388;2023-03-11T01:29:16;4.20;99.90
8662;DHT22;29684;47.722;9.388;2023-03-11T01:32:00;4.20;99.90
8662;DHT22;29684;47.722;9.388;2023-03-11T01:34:44;4.10;99.90
8662;DHT22;29684;47.722;9.388;2023-03-11T01:37:28;4.10;99.90
8662;DHT22;29684;47.722;9.388;2023-03-11T01:40:32;4.20;99.90
8662;DHT22;29684;47.722;9.388;2023-03-11T01:49:28;4.10;99.90
8662;DHT22;29684;47.722;9.388;2023-03-11T01:52:12;4.10;99.90
8662;DHT22;29684;47.722;9.388;2023-03-11T01:54:57;4.00;99.90
8662;DHT22;29684;47.722;9.388;2023-03-11T01:57:42;4.00;99.90
8662;DHT22;29684;47.722;9.388;2023-03-11T02:00:28;4.00;99.90
8662;DHT22;29684;47.722;9.388;2023-03-11T02:03:20;4.00;99.90
8662;DHT22;29684;47.722;9.388;2023-03-11T02:06:15;3.90;99.90
8662;DHT22;29684;47.722;9.388;2023-03-11T02:09:00;3.90;99.90
8662;DHT22;29684;47.722;9.388;2023-03-11T02:11:44;3.90;99.90
8662;DHT22;29684;47.722;9.388;2023-03-11T02:14:29;3.90;99.90
8662;DHT22;29684;47.722;9.388;2023-03-11T02:17:15;3.90;99.90
8662;DHT22;29684;47.722;9.388;2023-03-11T02:22:56;3.80;99.90
8662;DHT22;29684;47.722;9.388;2023-03-11T02:28:34;3.80;99.90
8662;DHT22;29684;47.722;9.388;2023-03-11T02:31:19;3.80;99.90
8662;DHT22;29684;47.722;9.388;2023-03-11T02:34:08;3.80;99.90
8662;DHT22;29684;47.722;9.388;2023-03-11T02:36:58;3.80;99.90
8662;DHT22;29684;47.722;9.388;2023-03-11T02:39:45;3.90;99.90
8662;DHT22;29684;47.722;9.388;2023-03-11T02:42:31;3.90;99.90
8662;DHT22;29684;47.722;9.388;2023-03-11T02:45:17;4.00;99.90
8662;DHT22;29684;47.722;9.388;2023-03-11T02:48:02;3.90;99.90
8662;DHT22;29684;47.722;9.388;2023-03-11T02:50:47;4.00;99.90
8662;DHT22;29684;47.722;9.388;2023-03-11T02:53:36;4.00;99.90
8662;DHT22;29684;47.722;9.388;2023-03-11T02:56:22;3.90;99.90
8662;DHT22;29684;47.722;9.388;2023-03-11T02:59:06;4.00;99.90
8662;DHT22;29684;47.722;9.388;2023-03-11T03:01:50;3.90;99.90
8662;DHT22;29684;47.722;9.388;2023-03-11T03:04:34;3.80;99.90
8662;DHT22;29684;47.722;9.388;2023-03-11T03:07:18;3.70;99.90
8662;DHT22;29684;47.722;9.388;2023-03-11T03:10:04;3.90;99.90
8662;DHT22;29684;47.722;9.388;2023-03-11T03:12:49;3.70;99.90
8662;DHT22;29684;47.722;9.388;2023-03-11T03:15:33;3.80;99.90
8662;DHT22;29684;47.722;9.388;2023-03-11T03:18:17;3.80;99.90
8662;DHT22;29684;47.722;9.388;2023-03-11T03:21:02;3.80;99.90
8662;DHT22;29684;47.722;9.388;2023-03-11T03:23:46;3.60;99.90
8662;DHT22;29684;47.722;9.388;2023-03-11T03:26:30;3.60;99.90
8662;DHT22;29684;47.722;9.388;2023-03-11T03:29:14;3.50;99.90
8662;DHT22;29684;47.722;9.388;2023-03-11T03:31:58;3.60;99.90
8662;DHT22;29684;47.722;9.388;2023-03-11T03:34:42;3.60;99.90
8662;DHT22;29684;47.722;9.388;2023-03-11T03:37:27;3.50;99.90
8662;DHT22;29684;47.722;9.388;2023-03-11T03:40:12;3.50;99.90
8662;DHT22;29684;47.722;9.388;2023-03-11T03:42:56;3.40;99.90
8662;DHT22;29684;47.722;9.388;2023-03-11T03:45:41;3.40;99.90
8662;DHT22;29684;47.722;9.388;2023-03-11T03:48:25;3.40;99.90
8662;DHT22;29684;47.722;9.388;2023-03-11T03:51:10;3.40;99.90
8662;DHT22;29684;47.722;9.388;2023-03-11T03:53:55;3.40;99.90
8662;DHT22;29684;47.722;9.388;2023-03-11T03:56:39;3.40;99.90
8662;DHT22;29684;47.722;9.388;2023-03-11T03:59:23;3.40;99.90
8662;DHT22;29684;47.722;9.388;2023-03-11T04:02:07;3.40;99.90
8662;DHT22;29684;47.722;9.388;2023-03-11T04:04:52;3.30;99.90
8662;DHT22;29684;47.722;9.388;2023-03-11T04:07:36;3.30;99.90
8662;DHT22;29684;47.722;9.388;2023-03-11T04:10:21;3.30;99.90
8662;DHT22;29684;47.722;9.388;2023-03-11T04:13:05;3.20;99.90
8662;DHT22;29684;47.722;9.388;2023-03-11T04:15:49;3.20;99.90
8662;DHT22;29684;47.722;9.388;2023-03-11T04:18:33;3.20;99.90
8662;DHT22;29684;47.722;9.388;2023-03-11T04:21:18;3.20;99.90
8662;DHT22;29684;47.722;9.388;2023-03-11T04:24:02;3.20;99.90
8662;DHT22;29684;47.722;9.388;2023-03-11T04:26:47;3.10;99.90
8662;DHT22;29684;47.722;9.388;2023-03-11T04:29:32;3.30;99.90
8662;DHT22;29684;47.722;9.388;2023-03-11T04:32:16;3.20;99.90
8662;DHT22;29684;47.722;9.388;2023-03-11T04:35:00;3.10;99.90
8662;DHT22;29684;47.722;9.388;2023-03-11T04:37:44;3.10;99.90
8662;DHT22;29684;47.722;9.388;2023-03-11T04:40:28;3.10;99.90
8662;DHT22;29684;47.722;9.388;2023-03-11T04:43:12;3.10;99.90
8662;DHT22;29684;47.722;9.388;2023-03-11T04:45:56;3.10;99.90
8662;DHT22;29684;47.722;9.388;2023-03-11T04:48:40;3.10;99.90
8662;DHT22;29684;47.722;9.388;2023-03-11T04:51:24;3.10;99.90
8662;DHT22;29684;47.722;9.388;2023-03-11T04:54:08;3.00;99.90
8662;DHT22;29684;47.722;9.388;2023-03-11T04:56:53;3.10;99.90
8662;DHT22;29684;47.722;9.388;2023-03-11T04:59:37;3.10;99.90
8662;DHT22;29684;47.722;9.388;2023-03-11T05:02:21;3.10;99.90
8662;DHT22;29684;47.722;9.388;2023-03-11T05:05:07;3.00;99.90
8662;DHT22;29684;47.722;9.388;2023-03-11T05:07:52;3.00;99.90
8662;DHT22;29684;47.722;9.388;2023-03-11T05:10:39;3.00;99.90
8662;DHT22;29684;47.722;9.388;2023-03-11T05:13:24;3.10;99.90
8662;DHT22;29684;47.722;9.388;2023-03-11T05:16:08;2.90;99.90
8662;DHT22;29684;47.722;9.388;2023-03-11T05:18:52;3.00;99.90
8662;DHT22;29684;47.722;9.388;2023-03-11T05:21:36;3.00;99.90
8662;DHT22;29684;47.722;9.388;2023-03-11T05:24:21;3.00;99.90
8662;DHT22;29684;47.722;9.388;2023-03-11T05:27:05;2.90;99.90
8662;DHT22;29684;47.722;9.388;2023-03-11T05:29:49;2.90;99.90
8662;DHT22;29684;47.722;9.388;2023-03-11T05:32:33;2.90;99.90
8662;DHT22;29684;47.722;9.388;2023-03-11T05:35:18;2.90;99.90
8662;DHT22;29684;47.722;9.388;2023-03-11T05:38:02;2.90;99.90
8662;DHT22;29684;47.722;9.388;2023-03-11T05:40:46;2.80;99.90
8662;DHT22;29684;47.722;9.388;2023-03-11T05:43:31;2.80;99.90
8662;DHT22;29684;47.722;9.388;2023-03-11T05:46:15;2.80;99.90
8662;DHT22;29684;47.722;9.388;2023-03-11T05:48:59;2.70;99.90
8662;DHT22;29684;47.722;9.388;2023-03-11T05:51:43;2.60;99.90
8662;DHT22;29684;47.722;9.388;2023-03-11T05:54:28;2.60;99.90
8662;DHT22;29684;47.722;9.388;2023-03-11T05:57:12;2.60;99.90
8662;DHT22;29684;47.722;9.388;2023-03-11T05:59:56;2.50;99.90
8662;DHT22;29684;47.722;9.388;2023-03-11T06:02:40;2.40;99.90
8662;DHT22;29684;47.722;9.388;2023-03-11T06:05:25;2.40;99.90
8662;DHT22;29684;47.722;9.388;2023-03-11T06:08:09;2.30;99.90
8662;DHT22;29684;47.722;9.388;2023-03-11T06:11:03;2.40;99.90
8662;DHT22;29684;47.722;9.388;2023-03-11T06:13:50;2.30;99.90
8662;DHT22;29684;47.722;9.388;2023-03-11T06:16:35;2.40;99.90
8662;DHT22;29684;47.722;9.388;2023-03-11T06:19:19;2.40;99.90
8662;DHT22;29684;47.722;9.388;2023-03-11T06:22:03;2.40;99.90
8662;DHT22;29684;47.722;9.388;2023-03-11T06:24:47;2.50;99.90
8662;DHT22;29684;47.722;9.388;2023-03-11T06:27:31;2.40;99.90
8662;DHT22;29684;47.722;9.388;2023-03-11T06:30:17;2.40;99.90
8662;DHT22;29684;47.722;9.388;2023-03-11T06:33:01;2.30;99.90
8662;DHT22;29684;47.722;9.388;2023-03-11T06:35:55;2.60;99.90
8662;DHT22;29684;47.722;9.388;2023-03-11T06:38:39;2.60;99.90
8662;DHT22;29684;47.722;9.388;2023-03-11T06:41:24;2.60;99.90
8662;DHT22;29684;47.722;9.388;2023-03-11T06:44:09;2.50;99.90
8662;DHT22;29684;47.722;9.388;2023-03-11T06:46:53;2.40;99.90
8662;DHT22;29684;47.722;9.388;2023-03-11T06:49:37;2.50;99.90
8662;DHT22;29684;47.722;9.388;2023-03-11T06:52:24;2.40;99.90
8662;DHT22;29684;47.722;9.388;2023-03-11T06:55:08;2.40;99.90
8662;DHT22;29684;47.722;9.388;2023-03-11T06:57:53;2.40;99.90
8662;DHT22;29684;47.722;9.388;2023-03-11T07:00:37;2.40;99.90
8662;DHT22;29684;47.722;9.388;2023-03-11T07:03:21;2.40;99.90
8662;DHT22;29684;47.722;9.388;2023-03-11T07:06:06;2.30;99.90
8662;DHT22;29684;47.722;9.388;2023-03-11T07:08:54;2.20;99.90
8662;DHT22;29684;47.722;9.388;2023-03-11T07:11:38;2.30;99.90
8662;DHT22;29684;47.722;9.388;2023-03-11T07:14:22;2.30;99.90
8662;DHT22;29684;47.722;9.388;2023-03-11T07:17:06;2.30;99.90
8662;DHT22;29684;47.722;9.388;2023-03-11T07:19:51;2.20;99.90
8662;DHT22;29684;47.722;9.388;2023-03-11T07:22:35;2.30;99.90
8662;DHT22;29684;47.722;9.388;2023-03-11T07:25:19;2.40;99.90
8662;DHT22;29684;47.722;9.388;2023-03-11T07:28:03;2.30;99.90
8662;DHT22;29684;47.722;9.388;2023-03-11T07:30:47;2.30;99.90
8662;DHT22;29684;47.722;9.388;2023-03-11T07:33:32;2.20;99.90
8662;DHT22;29684;47.722;9.388;2023-03-11T07:36:18;2.10;99.90
8662;DHT22;29684;47.722;9.388;2023-03-11T07:39:04;2.20;99.90
8662;DHT22;29684;47.722;9.388;2023-03-11T07:41:48;2.20;99.90
8662;DHT22;29684;47.722;9.388;2023-03-11T07:44:32;2.20;99.90
8662;DHT22;29684;47.722;9.388;2023-03-11T07:47:17;2.30;99.90
8662;DHT22;29684;47.722;9.388;2023-03-11T07:50:01;2.30;99.90
8662;DHT22;29684;47.722;9.388;2023-03-11T07:52:45;2.30;99.90
8662;DHT22;29684;47.722;9.388;2023-03-11T07:55:29;2.40;99.90
8662;DHT22;29684;47.722;9.388;2023-03-11T07:58:13;2.50;99.90
8662;DHT22;29684;47.722;9.388;2023-03-11T08:01:03;2.40;99.90
8662;DHT22;29684;47.722;9.388;2023-03-11T08:03:49;2.40;99.90
8662;DHT22;29684;47.722;9.388;2023-03-11T08:06:35;2.40;99.90
8662;DHT22;29684;47.722;9.388;2023-03-11T08:09:19;2.60;99.90
8662;DHT22;29684;47.722;9.388;2023-03-11T08:12:04;2.60;99.90
8662;DHT22;29684;47.722;9.388;2023-03-11T08:14:48;2.70;99.90
8662;DHT22;29684;47.722;9.388;2023-03-11T08:17:33;2.70;99.90
8662;DHT22;29684;47.722;9.388;2023-03-11T08:20:17;2.70;99.90
8662;DHT22;29684;47.722;9.388;2023-03-11T08:23:01;2.60;99.90
8662;DHT22;29684;47.722;9.388;2023-03-11T08:25:45;2.60;99.90
8662;DHT22;29684;47.722;9.388;2023-03-11T08:28:30;2.80;99.90
8662;DHT22;29684;47.722;9.388;2023-03-11T08:31:24;2.90;99.90
8662;DHT22;29684;47.722;9.388;2023-03-11T08:34:09;2.70;99.90
8662;DHT22;29684;47.722;9.388;2023-03-11T08:36:54;2.70;99.90
8662;DHT22;29684;47.722;9.388;2023-03-11T08:39:38;2.80;99.90
8662;DHT22;29684;47.722;9.388;2023-03-11T08:42:22;2.80;99.90
8662;DHT22;29684;47.722;9.388;2023-03-11T08:45:07;2.80;99.90
8662;DHT22;29684;47.722;9.388;2023-03-11T08:47:52;2.80;99.90
8662;DHT22;29684;47.722;9.388;2023-03-11T08:50:39;2.90;99.90
8662;DHT22;29684;47.722;9.388;2023-03-11T08:53:24;3.00;99.90
8662;DHT22;29684;47.722;9.388;2023-03-11T08:56:08;3.00;99.90
8662;DHT22;29684;47.722;9.388;2023-03-11T08:58:52;2.90;99.90
8662;DHT22;29684;47.722;9.388;2023-03-11T09:01:37;2.90;99.90
8662;DHT22;29684;47.722;9.388;2023-03-11T09:04:21;2.90;99.90
8662;DHT22;29684;47.722;9.388;2023-03-11T09:07:09;3.20;99.90
8662;DHT22;29684;47.722;9.388;2023-03-11T09:09:53;3.10;99.90
8662;DHT22;29684;47.722;9.388;2023-03-11T09:12:37;3.10;99.90
8662;DHT22;29684;47.722;9.388;2023-03-11T09:15:22;3.10;99.90
8662;DHT22;29684;47.722;9.388;2023-03-11T09:18:06;3.10;99.90
8662;DHT22;29684;47.722;9.388;2023-03-11T09:20:52;3.20;99.90
8662;DHT22;29684;47.722;9.388;2023-03-11T09:23:41;3.30;99.90
8662;DHT22;29684;47.722;9.388;2023-03-11T09:26:25;3.40;99.90
8662;DHT22;29684;47.722;9.388;2023-03-11T09:29:10;3.40;99.90
8662;DHT22;29684;47.722;9.388;2023-03-11T09:31:54;3.30;99.90
8662;DHT22;29684;47.722;9.388;2023-03-11T09:34:38;3.80;99.90
8662;DHT22;29684;47.722;9.388;2023-03-11T09:37:23;3.70;99.90
8662;DHT22;29684;47.722;9.388;2023-03-11T09:40:07;3.70;99.90
8662;DHT22;29684;47.722;9.388;2023-03-11T09:45:52;3.90;99.90
8662;DHT22;29684;47.722;9.388;2023-03-11T09:48:51;3.90;99.90
8662;DHT22;29684;47.722;9.388;2023-03-11T09:51:42;4.10;99.90
8662;DHT22;29684;47.722;9.388;2023-03-11T09:54:33;4.10;99.90
8662;DHT22;29684;47.722;9.388;2023-03-11T09:57:25;4.10;99.90
8662;DHT22;29684;47.722;9.388;2023-03-11T10:00:22;4.40;99.90
8662;DHT22;29684;47.722;9.388;2023-03-11T10:03:16;4.50;99.90
8662;DHT22;29684;47.722;9.388;2023-03-11T10:06:20;5.00;99.90
8662;DHT22;29684;47.722;9.388;2023-03-11T10:09:29;4.60;99.90
8662;DHT22;29684;47.722;9.388;2023-03-11T10:12:33;4.50;99.90
8662;DHT22;29684;47.722;9.388;2023-03-11T10:15:38;4.80;99.90
8662;DHT22;29684;47.722;9.388;2023-03-11T10:19:02;5.10;99.90
8662;DHT22;29684;47.722;9.388;2023-03-11T10:22:33;5.00;99.90
8662;DHT22;29684;47.722;9.388;2023-03-11T10:25:23;5.30;99.90
8662;DHT22;29684;47.722;9.388;2023-03-11T10:28:12;5.50;99.90
8662;DHT22;29684;47.722;9.388;2023-03-11T10:31:24;5.40;99.90
8662;DHT22;29684;47.722;9.388;2023-03-11T10:37:26;5.70;99.90
8662;DHT22;29684;47.722;9.388;2023-03-11T10:40:23;5.40;99.90
8662;DHT22;29684;47.722;9.388;2023-03-11T10:43:13;5.00;99.90
8662;DHT22;29684;47.722;9.388;2023-03-11T10:45:59;5.20;99.90
8662;DHT22;29684;47.722;9.388;2023-03-11T10:48:45;5.30;99.90
8662;DHT22;29684;47.722;9.388;2023-03-11T10:51:34;5.50;99.90
8662;DHT22;29684;47.722;9.388;2023-03-11T10:54:34;6.00;99.90
8662;DHT22;29684;47.722;9.388;2023-03-11T11:00:06;6.90;99.90
8662;DHT22;29684;47.722;9.388;2023-03-11T11:03:00;6.40;99.90
8662;DHT22;29684;47.722;9.388;2023-03-11T11:06:38;6.20;99.90
8662;DHT22;29684;47.722;9.388;2023-03-11T11:09:21;6.40;99.90
8662;DHT22;29684;47.722;9.388;2023-03-11T11:12:13;6.10;99.90
8662;DHT22;29684;47.722;9.388;2023-03-11T11:14:57;6.20;99.90
8662;DHT22;29684;47.722;9.388;2023-03-11T11:17:46;6.60;99.90
8662;DHT22;29684;47.722;9.388;2023-03-11T11:20:31;6.90;99.90
8662;DHT22;29684;47.722;9.388;2023-03-11T11:26:23;7.30;99.90
8662;DHT22;29684;47.722;9.388;2023-03-11T11:32:23;7.60;99.90
8662;DHT22;29684;47.722;9.388;2023-03-11T11:38:00;7.90;99.90
8662;DHT22;29684;47.722;9.388;2023-03-11T11:40:45;8.40;99.90
8662;DHT22;29684;47.722;9.388;2023-03-11T11:46:37;8.40;99.90
8662;DHT22;29684;47.722;9.388;2023-03-11T11:49:30;8.60;99.90
8662;DHT22;29684;47.722;9.388;2023-03-11T11:52:34;8.50;99.90
8662;DHT22;29684;47.722;9.388;2023-03-11T11:55:23;8.70;99.90
8662;DHT22;29684;47.722;9.388;2023-03-11T11:58:09;8.50;99.90
8662;DHT22;29684;47.722;9.388;2023-03-11T12:01:18;8.40;99.90
8662;DHT22;29684;47.722;9.388;2023-03-11T12:19:18;9.20;99.90
8662;DHT22;29684;47.722;9.388;2023-03-11T12:31:10;9.10;99.90
8662;DHT22;29684;47.722;9.388;2023-03-11T12:33:58;8.70;99.90
8662;DHT22;29684;47.722;9.388;2023-03-11T12:36:44;9.10;99.90
8662;DHT22;29684;47.722;9.388;2023-03-11T12:39:32;9.30;99.90
8662;DHT22;29684;47.722;9.388;2023-03-11T12:42:21;8.90;99.90
8662;DHT22;29684;47.722;9.388;2023-03-11T12:45:42;8.60;99.90
8662;DHT22;29684;47.722;9.388;2023-03-11T12:48:43;10.10;99.50
8662;DHT22;29684;47.722;9.388;2023-03-11T12:54:33;11.20;97.70
8662;DHT22;29684;47.722;9.388;2023-03-11T13:09:13;7.10;99.90
8662;DHT22;29684;47.722;9.388;2023-03-11T13:11:58;6.70;99.90
8662;DHT22;29684;47.722;9.388;2023-03-11T13:14:42;6.40;99.90
8662;DHT22;29684;47.722;9.388;2023-03-11T13:17:28;6.60;99.90
8662;DHT22;29684;47.722;9.388;2023-03-11T13:26:37;6.40;99.90
8662;DHT22;29684;47.722;9.388;2023-03-11T13:41:52;8.20;99.90
8662;DHT22;29684;47.722;9.388;2023-03-11T13:44:39;9.10;99.90
8662;DHT22;29684;47.722;9.388;2023-03-11T13:47:25;9.60;99.90
8662;DHT22;29684;47.722;9.388;2023-03-11T13:50:33;10.20;99.90
8662;DHT22;29684;47.722;9.388;2023-03-11T13:56:31;8.40;99.90
8662;DHT22;29684;47.722;9.388;2023-03-11T13:59:26;8.90;99.90
8662;DHT22;29684;47.722;9.388;2023-03-11T14:02:18;8.40;99.90
8662;DHT22;29684;47.722;9.388;2023-03-11T14:05:05;8.80;99.90
8662;DHT22;29684;47.722;9.388;2023-03-11T14:07:50;8.80;99.90
8662;DHT22;29684;47.722;9.388;2023-03-11T14:10:34;10.90;99.90
8662;DHT22;29684;47.722;9.388;2023-03-11T14:13:18;11.30;99.90
8662;DHT22;29684;47.722;9.388;2023-03-11T14:16:12;11.30;99.90
8662;DHT22;29684;47.722;9.388;2023-03-11T14:19:04;9.50;99.90
8662;DHT22;29684;47.722;9.388;2023-03-11T14:21:51;9.80;99.90
8662;DHT22;29684;47.722;9.388;2023-03-11T14:24:36;9.00;99.90
8662;DHT22;29684;47.722;9.388;2023-03-11T14:27:21;8.50;99.90
8662;DHT22;29684;47.722;9.388;2023-03-11T14:30:05;8.70;99.90
8662;DHT22;29684;47.722;9.388;2023-03-11T14:35:58;8.40;99.90
8662;DHT22;29684;47.722;9.388;2023-03-11T14:38:45;8.80;99.90
8662;DHT22;29684;47.722;9.388;2023-03-11T14:41:29;8.90;99.90
8662;DHT22;29684;47.722;9.388;2023-03-11T14:44:14;8.60;99.90
8662;DHT22;29684;47.722;9.388;2023-03-11T14:47:30;8.60;99.90
8662;DHT22;29684;47.722;9.388;2023-03-11T14:50:16;8.80;99.90
8662;DHT22;29684;47.722;9.388;2023-03-11T14:53:21;8.90;99.90
8662;DHT22;29684;47.722;9.388;2023-03-11T14:56:19;9.10;99.90
8662;DHT22;29684;47.722;9.388;2023-03-11T14:59:26;8.60;99.90
8662;DHT22;29684;47.722;9.388;2023-03-11T15:05:33;8.60;99.90
8662;DHT22;29684;47.722;9.388;2023-03-11T15:08:21;9.40;99.90
8662;DHT22;29684;47.722;9.388;2023-03-11T15:14:15;10.60;99.90
8662;DHT22;29684;47.722;9.388;2023-03-11T15:19:59;9.10;99.90
8662;DHT22;29684;47.722;9.388;2023-03-11T15:22:43;8.60;99.90
8662;DHT22;29684;47.722;9.388;2023-03-11T15:25:33;8.20;99.90
8662;DHT22;29684;47.722;9.388;2023-03-11T15:28:29;8.00;99.90
8662;DHT22;29684;47.722;9.388;2023-03-11T15:37:00;7.70;99.90
8662;DHT22;29684;47.722;9.388;2023-03-11T15:39:46;8.20;99.90
8662;DHT22;29684;47.722;9.388;2023-03-11T15:42:31;7.30;99.90
8662;DHT22;29684;47.722;9.388;2023-03-11T15:45:17;7.40;99.90
8662;DHT22;29684;47.722;9.388;2023-03-11T15:48:02;7.20;99.90
8662;DHT22;29684;47.722;9.388;2023-03-11T15:50:50;7.10;99.90
8662;DHT22;29684;47.722;9.388;2023-03-11T15:53:36;7.10;99.90
8662;DHT22;29684;47.722;9.388;2023-03-11T15:56:23;8.10;99.90
8662;DHT22;29684;47.722;9.388;2023-03-11T15:59:15;6.80;99.90
8662;DHT22;29684;47.722;9.388;2023-03-11T16:02:00;6.80;99.90
8662;DHT22;29684;47.722;9.388;2023-03-11T16:04:45;6.70;99.90
8662;DHT22;29684;47.722;9.388;2023-03-11T16:07:29;6.90;99.90
8662;DHT22;29684;47.722;9.388;2023-03-11T16:10:16;7.10;99.90
8662;DHT22;29684;47.722;9.388;2023-03-11T16:13:00;6.50;99.90
8662;DHT22;29684;47.722;9.388;2023-03-11T16:15:44;6.50;99.90
8662;DHT22;29684;47.722;9.388;2023-03-11T16:18:29;6.60;99.90
8662;DHT22;29684;47.722;9.388;2023-03-11T16:21:16;6.00;99.90
8662;DHT22;29684;47.722;9.388;2023-03-11T16:24:03;6.00;99.90
8662;DHT22;29684;47.722;9.388;2023-03-11T16:26:48;5.70;99.90
8662;DHT22;29684;47.722;9.388;2023-03-11T16:29:34;6.70;99.90
8662;DHT22;29684;47.722;9.388;2023-03-11T16:32:19;5.50;99.90
8662;DHT22;29684;47.722;9.388;2023-03-11T16:35:04;5.30;99.90
8662;DHT22;29684;47.722;9.388;2023-03-11T16:37:48;5.40;99.90
8662;DHT22;29684;47.722;9.388;2023-03-11T16:40:33;5.40;99.90
8662;DHT22;29684;47.722;9.388;2023-03-11T16:43:17;6.00;99.90
8662;DHT22;29684;47.722;9.388;2023-03-11T16:46:02;5.30;99.90
8662;DHT22;29684;47.722;9.388;2023-03-11T16:48:46;5.40;99.90
8662;DHT22;29684;47.722;9.388;2023-03-11T16:51:31;5.30;99.90
8662;DHT22;29684;47.722;9.388;2023-03-11T16:54:16;5.40;99.90
8662;DHT22;29684;47.722;9.388;2023-03-11T16:57:00;5.30;99.90
8662;DHT22;29684;47.722;9.388;2023-03-11T16:59:44;5.30;99.90
8662;DHT22;29684;47.722;9.388;2023-03-11T17:02:28;5.30;99.90
8662;DHT22;29684;47.722;9.388;2023-03-11T17:05:15;5.40;99.90
8662;DHT22;29684;47.722;9.388;2023-03-11T17:08:00;5.20;99.90
8662;DHT22;29684;47.722;9.388;2023-03-11T17:10:47;5.10;99.90
8662;DHT22;29684;47.722;9.388;2023-03-11T17:13:32;5.10;99.90
8662;DHT22;29684;47.722;9.388;2023-03-11T17:16:16;5.10;99.90
8662;DHT22;29684;47.722;9.388;2023-03-11T17:19:00;5.00;99.90
8662;DHT22;29684;47.722;9.388;2023-03-11T17:21:48;5.10;99.90
8662;DHT22;29684;47.722;9.388;2023-03-11T17:24:32;5.10;99.90
8662;DHT22;29684;47.722;9.388;2023-03-11T17:27:17;5.20;99.90
8662;DHT22;29684;47.722;9.388;2023-03-11T17:30:03;5.00;99.90
8662;DHT22;29684;47.722;9.388;2023-03-11T17:32:47;4.90;99.90
8662;DHT22;29684;47.722;9.388;2023-03-11T17:35:31;4.90;99.90
8662;DHT22;29684;47.722;9.388;2023-03-11T17:38:16;4.80;99.90
8662;DHT22;29684;47.722;9.388;2023-03-11T17:41:03;4.60;99.90
8662;DHT22;29684;47.722;9.388;2023-03-11T17:43:48;4.70;99.90
8662;DHT22;29684;47.722;9.388;2023-03-11T17:46:33;5.90;99.90
8662;DHT22;29684;47.722;9.388;2023-03-11T17:49:19;5.50;99.90
8662;DHT22;29684;47.722;9.388;2023-03-11T17:52:03;5.40;99.90
8662;DHT22;29684;47.722;9.388;2023-03-11T17:54:48;4.50;99.90
8662;DHT22;29684;47.722;9.388;2023-03-11T17:57:32;4.50;99.90
8662;DHT22;29684;47.722;9.388;2023-03-11T18:00:16;7.40;99.90
8662;DHT22;29684;47.722;9.388;2023-03-11T18:03:00;4.50;99.90
8662;DHT22;29684;47.722;9.388;2023-03-11T18:05:55;4.70;99.90
8662;DHT22;29684;47.722;9.388;2023-03-11T18:08:40;4.80;99.90
8662;DHT22;29684;47.722;9.388;2023-03-11T18:11:26;5.30;99.90
8662;DHT22;29684;47.722;9.388;2023-03-11T18:14:11;4.40;99.90
8662;DHT22;29684;47.722;9.388;2023-03-11T18:16:55;6.00;99.90
8662;DHT22;29684;47.722;9.388;2023-03-11T18:19:39;4.30;99.90
8662;DHT22;29684;47.722;9.388;2023-03-11T18:22:23;4.30;99.90
8662;DHT22;29684;47.722;9.388;2023-03-11T18:25:08;4.50;99.90
8662;DHT22;29684;47.722;9.388;2023-03-11T18:27:53;4.30;99.90
8662;DHT22;29684;47.722;9.388;2023-03-11T18:30:37;4.30;99.90
8662;DHT22;29684;47.722;9.388;2023-03-11T18:33:22;4.30;99.90
8662;DHT22;29684;47.722;9.388;2023-03-11T18:36:16;4.60;99.90
8662;DHT22;29684;47.722;9.388;2023-03-11T18:39:02;4.30;99.90
8662;DHT22;29684;47.722;9.388;2023-03-11T18:41:47;4.30;99.90
8662;DHT22;29684;47.722;9.388;2023-03-11T18:44:31;4.60;99.90
8662;DHT22;29684;47.722;9.388;2023-03-11T18:47:15;4.20;99.90
8662;DHT22;29684;47.722;9.388;2023-03-11T18:50:00;4.20;99.90
8662;DHT22;29684;47.722;9.388;2023-03-11T18:52:44;4.20;99.90
8662;DHT22;29684;47.722;9.388;2023-03-11T18:55:28;4.20;99.90
8662;DHT22;29684;47.722;9.388;2023-03-11T18:58:13;4.20;99.90
8662;DHT22;29684;47.722;9.388;2023-03-11T19:01:13;5.30;99.90
8662;DHT22;29684;47.722;9.388;2023-03-11T19:03:59;4.10;99.90
8662;DHT22;29684;47.722;9.388;2023-03-11T19:06:43;5.40;99.90
8662;DHT22;29684;47.722;9.388;2023-03-11T19:09:28;4.50;99.90
8662;DHT22;29684;47.722;9.388;2023-03-11T19:12:12;4.10;99.90
8662;DHT22;29684;47.722;9.388;2023-03-11T19:14:56;4.20;99.90
8662;DHT22;29684;47.722;9.388;2023-03-11T19:17:40;4.00;99.90
8662;DHT22;29684;47.722;9.388;2023-03-11T19:20:24;4.00;99.90
8662;DHT22;29684;47.722;9.388;2023-03-11T19:23:09;4.00;99.90
8662;DHT22;29684;47.722;9.388;2023-03-11T19:25:54;4.10;99.90
8662;DHT22;29684;47.722;9.388;2023-03-11T19:28:39;4.00;99.90
8662;DHT22;29684;47.722;9.388;2023-03-11T19:31:23;4.00;99.90
8662;DHT22;29684;47.722;9.388;2023-03-11T19:34:07;4.50;99.90
8662;DHT22;29684;47.722;9.388;2023-03-11T19:36:51;3.70;99.90
8662;DHT22;29684;47.722;9.388;2023-03-11T19:39:35;3.70;99.90
8662;DHT22;29684;47.722;9.388;2023-03-11T19:42:19;3.20;99.90
8662;DHT22;29684;47.722;9.388;2023-03-11T19:45:03;3.70;99.90
8662;DHT22;29684;47.722;9.388;2023-03-11T19:47:48;3.80;99.90
8662;DHT22;29684;47.722;9.388;2023-03-11T19:50:34;3.80;99.90
8662;DHT22;29684;47.722;9.388;2023-03-11T19:53:20;4.30;99.90
8662;DHT22;29684;47.722;9.388;2023-03-11T19:56:04;3.80;99.90
8662;DHT22;29684;47.722;9.388;2023-03-11T19:58:49;3.80;99.90
8662;DHT22;29684;47.722;9.388;2023-03-11T20:01:35;3.30;99.90